createdAt,value
2018-06-16T00:00:10.585Z,14.7
2018-06-16T00:01:00.661Z,14.7
2018-06-16T00:01:50.131Z,14.6
2018-06-16T00:02:40.748Z,14.7
2018-06-16T00:03:30.254Z,14.6
2018-06-16T00:04:20.876Z,14.7
2018-06-16T00:05:10.394Z,14.7
2018-06-16T00:06:01.036Z,14.8
2018-06-16T00:06:51.140Z,14.8
2018-06-16T00:07:41.180Z,14.7
2018-06-16T00:08:30.928Z,14.7
2018-06-16T00:09:21.013Z,14.7
2018-06-16T00:10:11.438Z,14.7
2018-06-16T00:11:01.383Z,14.7
2018-06-16T00:11:51.200Z,14.7
2018-06-16T00:12:41.531Z,14.7
2018-06-16T00:13:31.325Z,14.6
2018-06-16T00:14:21.713Z,14.6
2018-06-16T00:15:11.836Z,14.6
2018-06-16T00:16:01.221Z,14.6
2018-06-16T00:16:51.865Z,14.6
2018-06-16T00:17:41.917Z,14.6
2018-06-16T00:18:31.987Z,14.7
2018-06-16T00:19:21.513Z,14.7
2018-06-16T00:20:11.546Z,14.6
2018-06-16T00:21:02.171Z,14.7
2018-06-16T00:21:52.255Z,14.6
2018-06-16T00:22:42.294Z,14.6
2018-06-16T00:23:32.372Z,14.6
2018-06-16T00:24:21.885Z,14.6
2018-06-16T00:25:12.512Z,14.6
2018-06-16T00:26:02.282Z,14.6
2018-06-16T00:26:52.060Z,14.6
2018-06-16T00:27:42.704Z,14.6
2018-06-16T00:28:32.734Z,14.6
2018-06-16T00:29:22.246Z,14.6
2018-06-16T00:30:12.612Z,14.6
2018-06-16T00:31:02.938Z,14.6
2018-06-16T00:31:52.715Z,14.6
2018-06-16T00:32:42.779Z,14.6
2018-06-16T00:33:32.861Z,14.6
2018-06-16T00:34:22.906Z,14.6
2018-06-16T00:35:12.998Z,14.6
2018-06-16T00:36:03.044Z,14.6
2018-06-16T00:36:53.368Z,14.6
2018-06-16T00:37:43.448Z,14.6
2018-06-16T00:38:33.253Z,14.6
2018-06-16T00:39:23.608Z,14.6
2018-06-16T00:40:13.637Z,14.6
2018-06-16T00:41:03.408Z,14.6
2018-06-16T00:41:53.274Z,14.6
2018-06-16T00:42:43.533Z,14.6
2018-06-16T00:43:33.643Z,14.6
2018-06-16T00:44:23.670Z,14.6
2018-06-16T00:45:14.040Z,14.6
2018-06-16T00:46:03.860Z,14.6
2018-06-16T00:46:53.292Z,14.6
2018-06-16T00:47:43.911Z,14.6
2018-06-16T00:48:34.024Z,14.6
2018-06-16T00:49:24.055Z,14.6
2018-06-16T00:50:13.559Z,14.5
2018-06-16T00:51:04.453Z,14.6
2018-06-16T00:51:53.968Z,14.5
2018-06-16T00:52:44.591Z,14.5
2018-06-16T00:53:34.382Z,14.5
2018-06-16T00:54:24.720Z,14.5
2018-06-16T00:55:14.832Z,14.5
2018-06-16T00:56:04.584Z,14.5
2018-06-16T00:56:54.662Z,14.5
2018-06-16T00:57:44.405Z,14.6
2018-06-16T00:58:34.207Z,14.6
2018-06-16T00:59:24.823Z,14.5
2018-06-16T01:00:14.894Z,14.5
2018-06-16T01:01:05.250Z,14.5
2018-06-16T01:01:55.026Z,14.5
2018-06-16T01:02:45.113Z,14.5
2018-06-16T01:03:35.411Z,14.5
2018-06-16T01:04:24.931Z,14.5
2018-06-16T01:05:15.544Z,14.4
2018-06-16T01:06:05.338Z,14.4
2018-06-16T01:06:54.825Z,14.4
2018-06-16T01:07:45.738Z,14.4
2018-06-16T01:08:35.800Z,14.4
2018-06-16T01:09:25.891Z,14.4
2018-06-16T01:10:15.937Z,14.4
2018-06-16T01:11:05.448Z,14.4
2018-06-16T01:11:55.778Z,14.4
2018-06-16T01:12:45.853Z,14.4
2018-06-16T01:13:36.165Z,14.3
2018-06-16T01:14:26.266Z,14.3
2018-06-16T01:15:16.318Z,14.3
2018-06-16T01:16:06.097Z,14.3
2018-06-16T01:16:55.593Z,14.3
2018-06-16T01:17:45.920Z,14.3
2018-06-16T01:18:36.026Z,14.3
2018-06-16T01:19:26.332Z,14.3
2018-06-16T01:20:16.733Z,14.3
2018-06-16T01:21:06.748Z,14.3
2018-06-16T01:21:56.260Z,14.3
2018-06-16T01:22:46.891Z,14.3
2018-06-16T01:23:36.677Z,14.2
2018-06-16T01:24:27.019Z,14.2
2018-06-16T01:25:17.100Z,14.2
2018-06-16T01:26:07.153Z,14.2
2018-06-16T01:26:57.202Z,14.1
2018-06-16T01:27:46.982Z,14.1
2018-06-16T01:28:37.069Z,14.2
2018-06-16T01:29:26.874Z,14.1
2018-06-16T01:30:17.490Z,14.2
2018-06-16T01:31:06.951Z,14.2
2018-06-16T01:31:57.331Z,14.2
2018-06-16T01:32:47.404Z,14.2
2018-06-16T01:33:36.860Z,14.1
2018-06-16T01:34:27.486Z,14.1
2018-06-16T01:35:17.832Z,14.1
2018-06-16T01:36:07.920Z,14.1
2018-06-16T01:36:57.712Z,14.1
2018-06-16T01:37:48.060Z,14.1
2018-06-16T01:38:38.105Z,14.1
2018-06-16T01:39:27.911Z,14.1
2018-06-16T01:40:18.217Z,14.1
2018-06-16T01:41:08.006Z,14.1
2018-06-16T01:41:58.069Z,14.1
2018-06-16T01:42:48.113Z,14.1
2018-06-16T01:43:37.900Z,14.1
2018-06-16T01:44:27.976Z,14.1
2018-06-16T01:45:18.596Z,14.1
2018-06-16T01:46:08.395Z,14.1
2018-06-16T01:46:58.490Z,14.1
2018-06-16T01:47:48.785Z,14.1
2018-06-16T01:48:38.863Z,14.1
2018-06-16T01:49:28.925Z,14.1
2018-06-16T01:50:19.041Z,14.1
2018-06-16T01:51:08.492Z,14.1
2018-06-16T01:51:59.122Z,14.1
2018-06-16T01:52:48.620Z,14.1
2018-06-16T01:53:39.250Z,14.1
2018-06-16T01:54:29.022Z,14.1
2018-06-16T01:55:19.081Z,14.1
2018-06-16T01:56:09.129Z,14.2
2018-06-16T01:56:59.224Z,14.1
2018-06-16T01:57:49.533Z,14.1
2018-06-16T01:58:39.099Z,14.1
2018-06-16T01:59:29.683Z,14.2
2018-06-16T02:00:19.771Z,14.1
2018-06-16T02:01:09.551Z,14.2
2018-06-16T02:01:59.888Z,14.2
2018-06-16T02:02:49.932Z,14.2
2018-06-16T02:03:39.436Z,14.2
2018-06-16T02:04:30.098Z,14.2
2018-06-16T02:05:20.124Z,14.2
2018-06-16T02:06:09.926Z,14.2
2018-06-16T02:07:00.055Z,14.1
2018-06-16T02:07:50.335Z,14.1
2018-06-16T02:08:40.117Z,14.1
2018-06-16T02:09:30.191Z,14.1
2018-06-16T02:10:19.968Z,14.1
2018-06-16T02:11:10.303Z,14.1
2018-06-16T02:12:00.630Z,14.1
2018-06-16T02:12:50.695Z,14.1
2018-06-16T02:13:40.773Z,14.1
2018-06-16T02:14:30.567Z,14.1
2018-06-16T02:15:20.887Z,14.1
2018-06-16T02:16:10.698Z,14.1
2018-06-16T02:17:01.012Z,14.1
2018-06-16T02:17:50.838Z,14.1
2018-06-16T02:18:41.144Z,14.1
2018-06-16T02:19:31.248Z,14.2
2018-06-16T02:20:21.298Z,14.2
2018-06-16T02:21:11.369Z,14.2
2018-06-16T02:22:01.112Z,14.2
2018-06-16T02:22:51.192Z,14.2
2018-06-16T02:23:41.239Z,14.3
2018-06-16T02:24:31.584Z,14.2
2018-06-16T02:25:21.659Z,14.3
2018-06-16T02:26:11.699Z,14.3
2018-06-16T02:27:01.777Z,14.3
2018-06-16T02:27:51.286Z,14.3
2018-06-16T02:28:41.651Z,14.3
2018-06-16T02:29:31.981Z,14.3
2018-06-16T02:30:22.051Z,14.3
2018-06-16T02:31:12.164Z,14.3
2018-06-16T02:32:01.906Z,14.3
2018-06-16T02:32:52.252Z,14.3
2018-06-16T02:33:42.325Z,14.3
2018-06-16T02:34:32.388Z,14.3
2018-06-16T02:35:22.161Z,14.3
2018-06-16T02:36:12.515Z,14.3
2018-06-16T02:37:02.565Z,14.3
2018-06-16T02:37:52.090Z,14.4
2018-06-16T02:38:42.143Z,14.4
2018-06-16T02:39:32.775Z,14.4
2018-06-16T02:40:22.821Z,14.4
2018-06-16T02:41:12.334Z,14.4
2018-06-16T02:42:02.955Z,14.4
2018-06-16T02:42:53.014Z,14.4
2018-06-16T02:43:43.065Z,14.4
2018-06-16T02:44:32.840Z,14.4
2018-06-16T02:45:23.260Z,14.4
2018-06-16T02:46:13.287Z,14.4
2018-06-16T02:47:03.330Z,14.4
2018-06-16T02:47:53.400Z,14.4
2018-06-16T02:48:42.899Z,14.4
2018-06-16T02:49:33.239Z,14.4
2018-06-16T02:50:24.000Z,14.4
2018-06-16T02:51:13.651Z,14.4
2018-06-16T02:52:03.745Z,14.4
2018-06-16T02:52:53.527Z,14.4
2018-06-16T02:53:43.854Z,14.4
2018-06-16T02:54:33.918Z,14.4
2018-06-16T02:55:23.686Z,14.4
2018-06-16T02:56:14.017Z,14.4
2018-06-16T02:57:04.103Z,14.4
2018-06-16T02:57:54.172Z,14.4
2018-06-16T02:58:44.359Z,14.5
2018-06-16T02:59:34.001Z,14.5
2018-06-16T03:00:24.083Z,14.5
2018-06-16T03:01:14.123Z,14.5
2018-06-16T03:02:04.483Z,14.5
2018-06-16T03:02:54.269Z,14.5
2018-06-16T03:03:44.599Z,14.4
2018-06-16T03:04:34.693Z,14.4
2018-06-16T03:05:24.721Z,14.5
2018-06-16T03:06:14.564Z,14.5
2018-06-16T03:07:04.284Z,14.5
2018-06-16T03:07:54.902Z,14.6
2018-06-16T03:08:44.995Z,14.5
2018-06-16T03:09:35.057Z,14.5
2018-06-16T03:10:25.092Z,14.5
2018-06-16T03:11:14.904Z,14.6
2018-06-16T03:12:04.952Z,14.6
2018-06-16T03:12:55.032Z,14.6
2018-06-16T03:13:45.397Z,14.6
2018-06-16T03:14:35.419Z,14.6
2018-06-16T03:15:25.555Z,14.6
2018-06-16T03:16:15.612Z,14.6
2018-06-16T03:17:05.084Z,14.6
2018-06-16T03:17:55.400Z,14.6
2018-06-16T03:18:44.916Z,14.6
2018-06-16T03:19:35.262Z,14.6
2018-06-16T03:20:25.598Z,14.7
2018-06-16T03:21:15.938Z,14.7
2018-06-16T03:22:05.998Z,14.6
2018-06-16T03:22:55.782Z,14.7
2018-06-16T03:23:46.126Z,14.6
2018-06-16T03:24:35.880Z,14.8
2018-06-16T03:25:25.791Z,14.8
2018-06-16T03:26:16.359Z,14.8
2018-06-16T03:27:05.821Z,14.8
2018-06-16T03:27:56.171Z,14.7
2018-06-16T03:28:46.490Z,14.7
2018-06-16T03:29:36.026Z,14.8
2018-06-16T03:30:26.128Z,14.8
2018-06-16T03:31:16.701Z,14.8
2018-06-16T03:32:06.537Z,14.8
2018-06-16T03:32:56.535Z,14.8
2018-06-16T03:33:46.918Z,14.8
2018-06-16T03:34:36.411Z,14.8
2018-06-16T03:35:27.011Z,14.8
2018-06-16T03:36:17.290Z,14.8
2018-06-16T03:37:07.153Z,14.8
2018-06-16T03:37:56.382Z,14.7
2018-06-16T03:38:47.270Z,14.7
2018-06-16T03:39:36.767Z,14.8
2018-06-16T03:40:27.410Z,14.8
2018-06-16T03:41:17.175Z,14.8
2018-06-16T03:42:07.521Z,14.8
2018-06-16T03:42:57.307Z,14.8
2018-06-16T03:43:47.350Z,14.8
2018-06-16T03:44:37.424Z,14.8
2018-06-16T03:45:27.792Z,14.8
2018-06-16T03:46:17.855Z,14.9
2018-06-16T03:47:07.918Z,14.9
2018-06-16T03:47:57.709Z,14.9
2018-06-16T03:48:47.732Z,14.8
2018-06-16T03:49:38.107Z,14.8
2018-06-16T03:50:28.154Z,14.9
2018-06-16T03:51:18.275Z,14.8
2018-06-16T03:52:08.292Z,14.8
2018-06-16T03:52:58.361Z,14.9
2018-06-16T03:53:48.397Z,14.9
2018-06-16T03:54:38.254Z,14.9
2018-06-16T03:55:28.544Z,14.9
2018-06-16T03:56:18.657Z,14.9
2018-06-16T03:57:08.132Z,14.9
2018-06-16T03:57:58.740Z,14.9
2018-06-16T03:58:48.825Z,14.9
2018-06-16T03:59:38.847Z,14.9
2018-06-16T04:00:28.901Z,14.9
2018-06-16T04:01:18.721Z,14.9
2018-06-16T04:02:08.500Z,14.9
2018-06-16T04:02:58.844Z,15
2018-06-16T04:03:49.207Z,15
2018-06-16T04:04:38.959Z,15.1
2018-06-16T04:05:29.308Z,15
2018-06-16T04:06:19.094Z,15.1
2018-06-16T04:07:08.848Z,15.1
2018-06-16T04:07:59.209Z,15.1
2018-06-16T04:08:49.025Z,15.1
2018-06-16T04:09:39.355Z,15.1
2018-06-16T04:10:29.136Z,15.2
2018-06-16T04:11:19.747Z,15.1
2018-06-16T04:12:09.874Z,15.2
2018-06-16T04:12:59.696Z,15.2
2018-06-16T04:13:49.984Z,15.2
2018-06-16T04:14:40.010Z,15.2
2018-06-16T04:15:30.057Z,15.2
2018-06-16T04:16:20.144Z,15.3
2018-06-16T04:17:10.211Z,15.3
2018-06-16T04:17:59.982Z,15.4
2018-06-16T04:18:50.318Z,15.4
2018-06-16T04:19:40.109Z,15.4
2018-06-16T04:20:30.458Z,15.5
2018-06-16T04:21:20.508Z,15.5
2018-06-16T04:22:10.294Z,15.6
2018-06-16T04:23:00.149Z,15.6
2018-06-16T04:23:50.718Z,15.6
2018-06-16T04:24:40.782Z,15.6
2018-06-16T04:25:30.834Z,15.7
2018-06-16T04:26:20.911Z,15.6
2018-06-16T04:27:10.676Z,15.7
2018-06-16T04:28:00.754Z,15.8
2018-06-16T04:28:51.077Z,15.8
2018-06-16T04:29:40.862Z,15.9
2018-06-16T04:30:31.211Z,15.9
2018-06-16T04:31:20.728Z,16.1
2018-06-16T04:32:11.356Z,16.2
2018-06-16T04:33:01.117Z,16.2
2018-06-16T04:33:51.498Z,16.3
2018-06-16T04:34:41.371Z,16.4
2018-06-16T04:35:31.074Z,16.4
2018-06-16T04:36:21.470Z,16.5
2018-06-16T04:37:11.204Z,16.6
2018-06-16T04:38:01.217Z,16.6
2018-06-16T04:38:51.844Z,16.6
2018-06-16T04:39:41.948Z,16.5
2018-06-16T04:40:31.249Z,16.6
2018-06-16T04:41:20.732Z,16.6
2018-06-16T04:42:12.144Z,16.7
2018-06-16T04:43:02.212Z,16.8
2018-06-16T04:43:52.257Z,16.8
2018-06-16T04:44:42.035Z,16.8
2018-06-16T04:45:32.946Z,16.9
2018-06-16T04:46:22.447Z,17.1
2018-06-16T04:47:12.219Z,17.1
2018-06-16T04:48:02.023Z,17.2
2018-06-16T04:48:52.066Z,17.3
2018-06-16T04:49:42.705Z,17.3
2018-06-16T04:50:32.769Z,17.2
2018-06-16T04:51:22.518Z,17.2
2018-06-16T04:52:12.890Z,17.3
2018-06-16T04:53:02.918Z,17.4
2018-06-16T04:53:52.453Z,17.4
2018-06-16T04:54:42.836Z,17.4
2018-06-16T04:55:32.872Z,17.4
2018-06-16T04:56:22.951Z,17.4
2018-06-16T04:57:13.062Z,17.4
2018-06-16T04:58:03.118Z,17.4
2018-06-16T04:58:53.111Z,17.6
2018-06-16T04:59:42.891Z,17.8
2018-06-16T05:00:33.540Z,17.9
2018-06-16T05:01:23.301Z,17.9
2018-06-16T05:02:13.068Z,17.9
2018-06-16T05:03:03.713Z,17.9
2018-06-16T05:03:53.485Z,18
2018-06-16T05:04:43.657Z,18.1
2018-06-16T05:05:33.681Z,18.2
2018-06-16T05:06:23.387Z,18.2
2018-06-16T05:07:13.776Z,18.2
2018-06-16T05:08:04.172Z,18.3
2018-06-16T05:08:54.163Z,18.2
2018-06-16T05:09:43.673Z,18.2
2018-06-16T05:10:34.262Z,18.2
2018-06-16T05:11:24.324Z,18.2
2018-06-16T05:12:14.162Z,18.1
2018-06-16T05:13:04.229Z,18.3
2018-06-16T05:13:54.264Z,18.4
2018-06-16T05:14:44.319Z,18.4
2018-06-16T05:15:34.671Z,18.5
2018-06-16T05:16:24.166Z,18.5
2018-06-16T05:17:14.506Z,18.5
2018-06-16T05:18:54.644Z,18.8
2018-06-16T05:19:44.979Z,18.8
2018-06-16T05:20:34.489Z,19
2018-06-16T05:21:24.536Z,18.9
2018-06-16T05:22:14.908Z,19.1
2018-06-16T05:23:05.263Z,19
2018-06-16T05:23:55.019Z,18.9
2018-06-16T05:24:45.379Z,19
2018-06-16T05:25:35.471Z,19.1
2018-06-16T05:26:25.489Z,18.9
2018-06-16T05:27:14.746Z,18.9
2018-06-16T05:28:05.590Z,18.9
2018-06-16T05:28:55.134Z,19
2018-06-16T05:29:45.802Z,19.1
2018-06-16T05:30:35.243Z,18.9
2018-06-16T05:31:25.856Z,18.9
2018-06-16T05:32:15.920Z,18.9
2018-06-16T05:33:06.006Z,18.9
2018-06-16T05:33:55.782Z,18.8
2018-06-16T05:34:45.568Z,19
2018-06-16T05:35:35.668Z,19
2018-06-16T05:36:26.272Z,19
2018-06-16T05:37:16.364Z,18.9
2018-06-16T05:38:06.383Z,18.9
2018-06-16T05:38:56.426Z,18.8
2018-06-16T05:39:45.975Z,18.8
2018-06-16T05:40:36.627Z,18.8
2018-06-16T05:41:26.674Z,18.6
2018-06-16T05:42:16.712Z,18.8
2018-06-16T05:43:06.757Z,18.9
2018-06-16T05:43:56.561Z,18.8
2018-06-16T05:44:46.867Z,18.9
2018-06-16T05:45:36.691Z,18.6
2018-06-16T05:46:26.792Z,18.6
2018-06-16T05:47:17.079Z,18.5
2018-06-16T05:48:06.890Z,18.6
2018-06-16T05:48:57.217Z,18.6
2018-06-16T05:49:46.705Z,18.6
2018-06-16T05:50:37.365Z,18.6
2018-06-16T05:51:27.139Z,18.5
2018-06-16T05:52:17.468Z,18.6
2018-06-16T05:53:06.997Z,18.6
2018-06-16T05:53:57.923Z,18.6
2018-06-16T05:54:46.829Z,18.6
2018-06-16T05:55:37.188Z,18.6
2018-06-16T05:56:27.249Z,18.6
2018-06-16T05:58:07.939Z,18.6
2018-06-16T05:58:58.010Z,18.6
2018-06-16T05:59:47.766Z,18.6
2018-06-16T06:00:38.425Z,18.6
2018-06-16T06:01:28.164Z,18.6
2018-06-16T06:02:18.233Z,18.6
2018-06-16T06:03:08.299Z,18.6
2018-06-16T06:04:48.170Z,18.8
2018-06-16T06:05:37.923Z,18.6
2018-06-16T06:06:28.577Z,18.5
2018-06-16T06:07:18.330Z,18.3
2018-06-16T06:08:08.390Z,18.4
2018-06-16T06:08:58.735Z,18.6
2018-06-16T06:09:48.527Z,18.6
2018-06-16T06:11:28.977Z,18.6
2018-06-16T06:12:18.715Z,18.5
2018-06-16T06:13:09.087Z,18.6
2018-06-16T06:13:58.861Z,18.6
2018-06-16T06:14:49.247Z,18.6
2018-06-16T06:15:39.312Z,18.5
2018-06-16T06:16:29.026Z,18.5
2018-06-16T06:17:19.398Z,18.5
2018-06-16T06:18:08.899Z,18.5
2018-06-16T06:18:59.237Z,18.6
2018-06-16T06:19:49.583Z,18.6
2018-06-16T06:20:39.364Z,18.6
2018-06-16T06:21:29.158Z,18.6
2018-06-16T06:22:19.494Z,18.4
2018-06-16T06:23:09.575Z,18.4
2018-06-16T06:23:59.866Z,18.5
2018-06-16T06:24:49.941Z,18.4
2018-06-16T06:25:40.025Z,18.3
2018-06-16T06:26:29.858Z,18.3
2018-06-16T06:27:19.861Z,18.4
2018-06-16T06:28:09.960Z,18.4
2018-06-16T06:29:00.261Z,18.4
2018-06-16T06:29:49.807Z,18.5
2018-06-16T06:30:40.096Z,18.8
2018-06-16T06:31:30.201Z,18.9
2018-06-16T06:32:20.516Z,18.9
2018-06-16T06:34:00.673Z,18.8
2018-06-16T06:34:50.133Z,18.9
2018-06-16T06:35:40.488Z,18.9
2018-06-16T06:36:30.867Z,18.9
2018-06-16T06:37:20.663Z,18.8
2018-06-16T06:38:10.955Z,18.9
2018-06-16T06:39:01.092Z,18.9
2018-06-16T06:39:51.075Z,18.9
2018-06-16T06:40:40.587Z,18.9
2018-06-16T06:41:30.952Z,18.9
2018-06-16T06:42:21.021Z,19.1
2018-06-16T06:43:11.358Z,19.2
2018-06-16T06:44:01.455Z,19.2
2018-06-16T06:44:51.456Z,19.1
2018-06-16T06:45:41.258Z,19.1
2018-06-16T06:46:31.597Z,19.1
2018-06-16T06:47:21.107Z,19.3
2018-06-16T06:48:11.422Z,19.3
2018-06-16T06:49:01.812Z,19.3
2018-06-16T06:49:51.007Z,19.4
2018-06-16T06:50:41.621Z,19.4
2018-06-16T06:51:31.704Z,19.5
2018-06-16T06:52:22.091Z,19.6
2018-06-16T06:53:11.826Z,19.6
2018-06-16T06:54:02.198Z,19.5
2018-06-16T06:54:52.229Z,19.6
2018-06-16T06:55:42.346Z,19.7
2018-06-16T06:56:32.115Z,19.5
2018-06-16T06:57:22.178Z,19.6
2018-06-16T06:58:12.194Z,19.7
2018-06-16T06:59:02.294Z,19.4
2018-06-16T06:59:52.669Z,19.6
2018-06-16T07:00:42.403Z,19.8
2018-06-16T07:01:31.936Z,19.8
2018-06-16T07:02:22.811Z,20
2018-06-16T07:03:12.882Z,20.4
2018-06-16T07:04:02.852Z,20.7
2018-06-16T07:04:53.008Z,20.9
2018-06-16T07:06:32.856Z,21.3
2018-06-16T07:07:22.643Z,21.3
2018-06-16T07:08:12.996Z,21.5
2018-06-16T07:09:03.317Z,21.8
2018-06-16T07:09:53.368Z,21.9
2018-06-16T07:10:43.893Z,22.1
2018-06-16T07:11:33.503Z,22.1
2018-06-16T07:12:23.025Z,22
2018-06-16T07:13:13.062Z,22.1
2018-06-16T07:14:03.138Z,22.1
2018-06-16T07:14:53.758Z,22.3
2018-06-16T07:15:43.273Z,22.4
2018-06-16T07:16:33.927Z,22.6
2018-06-16T07:17:23.960Z,22.7
2018-06-16T07:18:13.752Z,22.7
2018-06-16T07:19:04.122Z,22.7
2018-06-16T07:19:53.875Z,22.8
2018-06-16T07:20:43.648Z,22.6
2018-06-16T07:21:34.295Z,22.9
2018-06-16T07:22:24.321Z,23.1
2018-06-16T07:23:13.836Z,23.4
2018-06-16T07:24:04.476Z,23.5
2018-06-16T07:24:54.528Z,23.5
2018-06-16T07:25:44.636Z,23.8
2018-06-16T07:26:34.205Z,23.8
2018-06-16T07:27:24.711Z,23.6
2018-06-16T07:28:14.800Z,23.3
2018-06-16T07:29:04.889Z,23.5
2018-06-16T07:29:54.920Z,23.7
2018-06-16T07:30:44.148Z,23.8
2018-06-16T07:31:34.800Z,23.9
2018-06-16T07:32:24.844Z,23.6
2018-06-16T07:33:15.192Z,23.6
2018-06-16T07:34:05.321Z,23.8
2018-06-16T07:34:55.329Z,23.6
2018-06-16T07:35:45.364Z,23.7
2018-06-16T07:36:34.873Z,24.1
2018-06-16T07:37:25.542Z,23.8
2018-06-16T07:38:14.528Z,23.1
2018-06-16T07:39:05.379Z,22.8
2018-06-16T07:39:54.946Z,23.1
2018-06-16T07:40:45.821Z,23.2
2018-06-16T07:41:35.622Z,22.6
2018-06-16T07:42:25.880Z,22.7
2018-06-16T07:43:15.471Z,22.5
2018-06-16T07:44:06.006Z,23.1
2018-06-16T07:44:55.786Z,23.4
2018-06-16T07:45:45.860Z,23.8
2018-06-16T07:46:35.731Z,23.9
2018-06-16T07:47:26.251Z,24.1
2018-06-16T07:48:16.329Z,24.2
2018-06-16T07:49:06.436Z,24.5
2018-06-16T07:49:56.491Z,24.2
2018-06-16T07:50:46.530Z,24.3
2018-06-16T07:51:36.603Z,24.3
2018-06-16T07:52:26.638Z,24.2
2018-06-16T07:53:16.261Z,24
2018-06-16T07:54:06.788Z,23.8
2018-06-16T07:54:56.563Z,24
2018-06-16T07:55:46.618Z,24.6
2018-06-16T07:56:36.693Z,24.8
2018-06-16T07:57:27.025Z,25.1
2018-06-16T07:58:17.094Z,25.1
2018-06-16T07:59:06.589Z,25.1
2018-06-16T07:59:56.937Z,24.8
2018-06-16T08:00:47.294Z,24.6
2018-06-16T08:01:36.815Z,24.6
2018-06-16T08:02:27.447Z,24.8
2018-06-16T08:03:16.942Z,25
2018-06-16T08:04:07.538Z,24.8
2018-06-16T08:04:56.788Z,24.9
2018-06-16T08:05:47.385Z,25.2
2018-06-16T08:06:37.723Z,25.6
2018-06-16T08:07:27.322Z,25.7
2018-06-16T08:08:17.583Z,25.8
2018-06-16T08:09:07.917Z,25.8
2018-06-16T08:09:58.023Z,25.9
2018-06-16T08:10:48.064Z,25.8
2018-06-16T08:11:38.137Z,25.9
2018-06-16T08:12:28.218Z,25.8
2018-06-16T08:13:18.263Z,25.9
2018-06-16T08:14:08.045Z,25.8
2018-06-16T08:14:58.401Z,25.8
2018-06-16T08:15:47.627Z,25.8
2018-06-16T08:16:38.253Z,25.9
2018-06-16T08:17:28.594Z,25.4
2018-06-16T08:18:18.652Z,25.8
2018-06-16T08:19:08.752Z,26.2
2018-06-16T08:19:58.231Z,26.4
2018-06-16T08:20:48.866Z,26.4
2018-06-16T08:21:38.928Z,26.1
2018-06-16T08:22:28.678Z,25.6
2018-06-16T08:23:18.738Z,24.6
2018-06-16T08:24:09.165Z,24.9
2018-06-16T08:24:59.177Z,25.3
2018-06-16T08:25:49.230Z,24.9
2018-06-16T08:26:39.290Z,24.9
2018-06-16T08:27:28.823Z,25.2
2018-06-16T08:28:19.415Z,25.3
2018-06-16T08:29:09.497Z,25.8
2018-06-16T08:29:59.303Z,25.8
2018-06-16T08:30:49.635Z,25.4
2018-06-16T08:31:39.170Z,25.4
2018-06-16T08:32:28.908Z,25.6
2018-06-16T08:33:19.828Z,26.1
2018-06-16T08:34:09.884Z,26.3
2018-06-16T08:34:59.952Z,26.5
2018-06-16T08:35:49.426Z,27
2018-06-16T08:36:40.071Z,27.3
2018-06-16T08:37:29.844Z,27.4
2018-06-16T08:38:20.226Z,27.4
2018-06-16T08:39:10.245Z,27
2018-06-16T08:40:00.304Z,26.7
2018-06-16T08:41:40.446Z,27
2018-06-16T08:42:30.254Z,26.6
2018-06-16T08:43:21.070Z,26.6
2018-06-16T08:44:10.110Z,26.6
2018-06-16T08:45:00.723Z,26.8
2018-06-16T08:45:50.751Z,27.3
2018-06-16T08:46:40.898Z,27.3
2018-06-16T08:47:30.902Z,26.1
2018-06-16T08:48:20.716Z,26.4
2018-06-16T08:49:11.031Z,24.8
2018-06-16T08:50:01.095Z,24.1
2018-06-16T08:50:50.879Z,24.1
2018-06-16T08:51:41.217Z,24.3
2018-06-16T08:52:31.267Z,24.6
2018-06-16T08:53:21.362Z,25.1
2018-06-16T08:54:11.126Z,25.6
2018-06-16T08:55:01.491Z,25.9
2018-06-16T08:55:51.297Z,26.6
2018-06-16T08:56:41.630Z,26.8
2018-06-16T08:57:31.676Z,27.1
2018-06-16T08:58:21.465Z,27.6
2018-06-16T08:59:11.792Z,27.1
2018-06-16T09:00:01.930Z,26.9
2018-06-16T09:00:51.935Z,27.1
2018-06-16T09:01:42.045Z,27.4
2018-06-16T09:02:31.824Z,27.1
2018-06-16T09:03:21.876Z,27.4
2018-06-16T09:04:12.217Z,27.7
2018-06-16T09:05:01.750Z,27.6
2018-06-16T09:05:52.365Z,27.4
2018-06-16T09:06:42.407Z,27
2018-06-16T09:07:32.443Z,26.7
2018-06-16T09:08:22.519Z,25.9
2018-06-16T09:09:12.315Z,26.3
2018-06-16T09:10:02.375Z,26.3
2018-06-16T09:10:52.422Z,26.4
2018-06-16T09:11:42.771Z,26.6
2018-06-16T09:12:32.823Z,26.4
2018-06-16T09:13:22.921Z,26.3
2018-06-16T09:14:12.685Z,26.5
2018-06-16T09:15:03.029Z,26.4
2018-06-16T09:15:52.573Z,26.3
2018-06-16T09:16:43.187Z,25.9
2018-06-16T09:17:33.229Z,26.2
2018-06-16T09:18:23.309Z,26.8
2018-06-16T09:19:12.817Z,27.1
2018-06-16T09:20:03.466Z,27.1
2018-06-16T09:20:53.201Z,27.2
2018-06-16T09:21:43.582Z,27.4
2018-06-16T09:22:33.227Z,27.5
2018-06-16T09:23:23.258Z,27.4
2018-06-16T09:24:13.733Z,27.1
2018-06-16T09:25:03.818Z,26.4
2018-06-16T09:25:53.314Z,26.4
2018-06-16T09:26:43.683Z,26.1
2018-06-16T09:27:33.435Z,26
2018-06-16T09:28:23.498Z,26.1
2018-06-16T09:29:13.570Z,26.2
2018-06-16T09:30:03.673Z,26
2018-06-16T09:30:54.272Z,25.7
2018-06-16T09:31:44.615Z,25.3
2018-06-16T09:32:34.402Z,25
2018-06-16T09:33:23.883Z,24.9
2018-06-16T09:34:14.511Z,25.3
2018-06-16T09:35:04.295Z,25.6
2018-06-16T09:35:54.649Z,25.8
2018-06-16T09:36:44.429Z,25.7
2018-06-16T09:37:34.505Z,25.8
2018-06-16T09:38:24.826Z,25.7
2018-06-16T09:39:14.628Z,25.7
2018-06-16T09:40:04.689Z,25.7
2018-06-16T09:40:55.057Z,26.3
2018-06-16T09:41:44.833Z,26.3
2018-06-16T09:42:35.766Z,26
2018-06-16T09:43:24.930Z,26
2018-06-16T09:44:15.278Z,26.1
2018-06-16T09:45:05.358Z,26.8
2018-06-16T09:45:55.419Z,26.7
2018-06-16T09:46:45.193Z,27.3
2018-06-16T09:47:35.538Z,27.6
2018-06-16T09:49:15.403Z,27.1
2018-06-16T09:50:05.732Z,26.8
2018-06-16T09:50:55.816Z,27.1
2018-06-16T09:51:45.884Z,27
2018-06-16T09:52:35.665Z,26.3
2018-06-16T09:53:25.745Z,25.9
2018-06-16T09:54:15.788Z,25.9
2018-06-16T09:55:06.146Z,26.1
2018-06-16T09:55:55.927Z,26.7
2018-06-16T09:56:46.243Z,27.7
2018-06-16T09:57:36.028Z,28.1
2018-06-16T09:58:26.367Z,28.3
2018-06-16T09:59:16.447Z,28.4
2018-06-16T10:00:05.967Z,28.4
2018-06-16T10:00:55.748Z,28.6
2018-06-16T10:01:46.374Z,28.5
2018-06-16T10:02:36.720Z,28.5
2018-06-16T10:04:16.312Z,28
2018-06-16T10:05:06.919Z,28
2018-06-16T10:05:56.411Z,28.1
2018-06-16T10:06:47.029Z,28.1
2018-06-16T10:07:37.112Z,27.4
2018-06-16T10:08:26.890Z,27.1
2018-06-16T10:09:16.946Z,26.8
